Time;durP1;ratioP1;P1;durP2;ratioP2;P2;SDS_P1;SDS_P2;PMS_P1;PMS_P2;Temp;Humidity;BMP_temperature;BMP_pressure;BME280_temperature;BME280_humidity;BME280_pressure;Samples;Min_cycle;Max_cycle;Signal;HPM_P1;HPM_P2
2022/02/20 00:01:37;;;;;;;13.57;5.47;;;;;;;3.30;100.00;98275.06;1646769;85;21581;-69
2022/02/20 00:04:04;;;;;;;12.77;5.50;;;;;;;3.30;100.00;98267.05;1671933;85;21042;-70
2022/02/20 00:06:32;;;;;;;10.87;5.10;;;;;;;3.33;100.00;98272.03;1670992;85;21178;-70
2022/02/20 00:09:02;;;;;;;13.10;5.37;;;;;;;3.29;100.00;98267.53;1682947;85;21596;-69
2022/02/20 00:11:29;;;;;;;12.90;5.53;;;;;;;3.27;100.00;98276.72;1717940;83;21016;-70
2022/02/20 00:13:56;;;;;;;12.20;5.60;;;;;;;3.25;100.00;98264.05;1717342;83;21495;-69
2022/02/20 00:16:24;;;;;;;18.10;6.40;;;;;;;3.22;100.00;98259.38;1715320;83;21779;-69
2022/02/20 00:18:51;;;;;;;18.07;6.93;;;;;;;3.19;100.00;98256.20;1717834;83;21018;-71
2022/02/20 00:21:18;;;;;;;16.80;5.97;;;;;;;3.15;100.00;98265.05;1710706;83;21082;-69
2022/02/20 00:23:45;;;;;;;15.63;6.50;;;;;;;3.14;100.00;98272.72;1716201;83;21067;-70
2022/02/20 00:26:12;;;;;;;15.40;6.63;;;;;;;3.14;100.00;98278.57;1716118;83;21511;-71
2022/02/20 00:28:41;;;;;;;15.43;6.43;;;;;;;3.12;100.00;98280.07;1718285;83;22306;-69
2022/02/20 00:31:09;;;;;;;17.63;7.80;;;;;;;3.10;100.00;98280.73;1717850;83;21049;-70
2022/02/20 00:33:37;;;;;;;17.03;7.00;;;;;;;3.06;100.00;98277.22;1714653;83;21010;-69
2022/02/20 00:36:05;;;;;;;17.63;6.60;;;;;;;3.04;100.00;98268.03;1718583;83;21513;-71
2022/02/20 00:38:32;;;;;;;20.07;8.43;;;;;;;3.02;100.00;98259.36;1718040;83;21034;-70
2022/02/20 00:40:59;;;;;;;17.23;7.77;;;;;;;2.99;100.00;98263.22;1693675;83;21078;-70
2022/02/20 00:43:32;;;;;;;20.43;9.00;;;;;;;2.97;100.00;98267.86;1708693;83;21007;-69
2022/02/20 00:46:00;;;;;;;21.97;9.53;;;;;;;2.94;100.00;98261.55;1714784;83;21108;-69
2022/02/20 00:48:27;;;;;;;19.80;9.33;;;;;;;2.94;100.00;98267.36;1709079;83;21038;-69
2022/02/20 00:50:56;;;;;;;21.47;9.33;;;;;;;2.93;100.00;98267.87;1709774;83;20986;-69
2022/02/20 00:53:26;;;;;;;18.63;8.83;;;;;;;2.92;100.00;98265.36;1691896;83;21021;-71
2022/02/20 00:55:53;;;;;;;21.83;9.30;;;;;;;2.92;100.00;98261.36;1732180;81;21093;-70
2022/02/20 00:58:20;;;;;;;21.33;9.73;;;;;;;2.91;100.00;98267.20;1739390;82;21043;-70
2022/02/20 01:00:47;;;;;;;19.57;8.43;;;;;;;2.91;100.00;98277.88;1723565;82;20999;-70
2022/02/20 01:03:14;;;;;;;19.73;8.13;;;;;;;2.92;100.00;98274.23;1743354;82;21168;-69
2022/02/20 01:05:42;;;;;;;18.57;8.23;;;;;;;2.92;100.00;98264.02;1745083;81;21078;-70
2022/02/20 01:08:09;;;;;;;17.13;7.93;;;;;;;2.92;100.00;98272.89;1743845;82;21518;-70
2022/02/20 01:10:38;;;;;;;18.80;8.13;;;;;;;2.92;100.00;98278.23;1741804;82;21054;-70
2022/02/20 01:13:06;;;;;;;17.33;7.47;;;;;;;2.91;100.00;98271.72;1736475;82;21078;-69
2022/02/20 01:15:34;;;;;;;20.00;8.10;;;;;;;2.90;100.00;98279.37;1742008;82;21157;-70
2022/02/20 01:18:02;;;;;;;18.90;7.73;;;;;;;2.89;100.00;98279.06;1742813;82;21050;-69
2022/02/20 01:20:29;;;;;;;17.77;7.37;;;;;;;2.87;100.00;98275.22;1697185;82;21026;-70
2022/02/20 01:22:57;;;;;;;18.73;8.30;;;;;;;2.87;100.00;98283.23;1741994;82;21066;-69
2022/02/20 01:25:24;;;;;;;20.27;7.43;;;;;;;2.85;100.00;98287.39;1738646;82;21641;-70
2022/02/20 01:27:51;;;;;;;17.03;7.20;;;;;;;2.85;100.00;98288.73;1742049;82;21015;-70
2022/02/20 01:30:18;;;;;;;17.43;7.27;;;;;;;2.89;100.00;98283.06;1736621;82;21006;-71
2022/02/20 01:32:46;;;;;;;16.83;7.10;;;;;;;2.88;100.00;98288.88;1737411;82;21028;-70
2022/02/20 01:35:15;;;;;;;18.67;7.00;;;;;;;2.87;100.00;98282.37;1740394;82;21035;-70
2022/02/20 01:37:43;;;;;;;17.60;6.77;;;;;;;2.85;100.00;98287.39;1748705;82;20999;-70
2022/02/20 01:40:12;;;;;;;19.03;6.80;;;;;;;2.87;100.00;98283.70;1719178;82;21003;-70
2022/02/20 01:42:40;;;;;;;21.87;7.60;;;;;;;2.86;100.00;98281.55;1743428;82;21022;-68
2022/02/20 01:45:13;;;;;;;16.33;6.93;;;;;;;2.85;100.00;98276.71;1743506;81;21007;-70
2022/02/20 01:47:40;;;;;;;17.07;7.05;;;;;;;2.85;100.00;98277.19;1746746;81;20987;-68
2022/02/20 01:50:09;;;;;;;14.23;6.73;;;;;;;2.83;100.00;98277.38;1737251;82;21059;-69
2022/02/20 01:52:38;;;;;;;16.73;6.77;;;;;;;2.82;100.00;98278.87;1744471;81;21010;-69
2022/02/20 01:57:42;;;;;;;16.93;7.00;;;;;;;2.75;100.00;98295.22;1657805;85;21589;-69
2022/02/20 02:00:16;;;;;;;19.10;7.67;;;;;;;2.70;100.00;98299.70;1551403;92;21100;-70
2022/02/20 02:02:43;;;;;;;20.17;7.63;;;;;;;2.64;100.00;98296.36;1548666;92;21169;-69
2022/02/20 02:05:12;;;;;;;20.03;7.97;;;;;;;2.59;100.00;98298.69;1542881;92;21070;-70
2022/02/20 02:07:41;;;;;;;19.73;7.70;;;;;;;2.52;100.00;98309.16;1549874;92;21172;-69
2022/02/20 02:10:29;;;;;;;17.93;7.10;;;;;;;2.48;100.00;98321.16;1548444;92;21088;-68
2022/02/20 02:13:08;;;;;;;20.70;7.90;;;;;;;2.43;100.00;98330.15;1475480;96;21144;-69
2022/02/20 02:15:50;;;;;;;17.90;7.60;;;;;;;2.38;100.00;98327.95;1474526;95;21528;-71
2022/02/20 02:18:40;;;;;;;19.87;8.27;;;;;;;2.37;100.00;98328.11;1371722;102;21115;-71
2022/02/20 02:21:18;;;;;;;22.97;8.30;;;;;;;2.33;100.00;98336.10;1344889;104;21181;-69
2022/02/20 02:23:57;;;;;;;20.43;8.87;;;;;;;2.28;100.00;98341.91;1297456;108;21237;-70
2022/02/20 02:26:32;;;;;;;21.63;9.30;;;;;;;2.23;100.00;98344.21;1334923;106;21190;-69
2022/02/20 02:29:01;;;;;;;18.63;8.10;;;;;;;2.18;100.00;98342.04;1346475;104;21169;-71
2022/02/20 02:31:28;;;;;;;18.33;7.97;;;;;;;2.15;100.00;98351.69;1334008;105;21292;-72
2022/02/20 02:33:55;;;;;;;20.37;8.93;;;;;;;2.09;100.00;98358.49;1319390;107;21174;-70
2022/02/20 02:36:23;;;;;;;19.53;8.10;;;;;;;2.05;100.00;98360.29;1297772;109;21341;-70
2022/02/20 02:38:50;;;;;;;19.33;8.90;;;;;;;2.02;100.00;98360.12;1328418;107;21150;-70
2022/02/20 02:41:19;;;;;;;18.53;8.37;;;;;;;2.00;100.00;98362.11;1315261;106;21173;-70
2022/02/20 02:43:51;;;;;;;20.43;8.80;;;;;;;1.98;100.00;98365.41;1319191;106;21757;-71
2022/02/20 02:46:18;;;;;;;21.00;8.43;;;;;;;1.92;100.00;98370.55;1321524;107;21241;-70
2022/02/20 02:48:48;;;;;;;21.33;8.00;;;;;;;1.86;100.00;98371.52;1341207;105;21127;-70
2022/02/20 02:51:17;;;;;;;21.87;8.33;;;;;;;1.83;100.00;98377.66;1405987;101;21182;-71
2022/02/20 02:53:45;;;;;;;21.97;8.67;;;;;;;1.80;100.00;98382.78;1420187;98;21127;-70
2022/02/20 02:56:12;;;;;;;18.73;8.23;;;;;;;1.77;100.00;98382.26;1494368;94;21076;-70
2022/02/20 02:58:39;;;;;;;18.07;7.37;;;;;;;1.73;100.00;98383.06;1512408;94;21547;-70
2022/02/20 03:01:08;;;;;;;17.70;7.50;;;;;;;1.70;100.00;98380.73;1599001;86;21065;-72
2022/02/20 03:03:35;;;;;;;18.20;7.27;;;;;;;1.66;100.00;98387.34;1604287;87;21593;-70
2022/02/20 03:06:12;;;;;;;18.63;7.27;;;;;;;1.63;100.00;98391.64;1629155;87;21034;-71
2022/02/20 03:08:39;;;;;;;18.97;8.40;;;;;;;1.58;100.00;98397.45;1581615;90;21102;-70
2022/02/20 03:11:07;;;;;;;20.97;8.53;;;;;;;1.57;100.00;98404.27;1588432;89;21121;-70
2022/02/20 03:13:37;;;;;;;21.10;8.57;;;;;;;1.53;100.00;98400.24;1597587;87;21077;-70
2022/02/20 03:16:07;;;;;;;19.37;8.37;;;;;;;1.49;100.00;98399.71;1632180;87;21549;-69
2022/02/20 03:18:34;;;;;;;22.40;8.80;;;;;;;1.46;100.00;98401.34;1613390;87;21561;-69
2022/02/20 03:21:06;;;;;;;20.60;8.30;;;;;;;1.44;100.00;98407.33;1639103;87;21050;-68
2022/02/20 03:23:34;;;;;;;18.53;8.37;;;;;;;1.41;100.00;98412.95;1650187;84;21061;-70
2022/02/20 03:26:03;;;;;;;18.47;7.87;;;;;;;1.38;100.00;98414.10;1620943;85;21046;-71
2022/02/20 03:28:32;;;;;;;18.50;7.73;;;;;;;1.36;100.00;98408.06;1683537;85;21073;-70
2022/02/20 03:31:02;;;;;;;20.60;8.17;;;;;;;1.34;100.00;98407.38;1689629;84;21085;-71
2022/02/20 03:33:30;;;;;;;18.33;8.10;;;;;;;1.31;100.00;98412.53;1685490;84;21097;-70
2022/02/20 03:35:57;;;;;;;19.53;7.67;;;;;;;1.30;100.00;98410.84;1689492;84;21132;-69
2022/02/20 03:38:24;;;;;;;16.73;7.77;;;;;;;1.28;100.00;98423.48;1687921;84;21525;-71
2022/02/20 03:40:51;;;;;;;18.40;8.10;;;;;;;1.27;100.00;98419.13;1684567;84;21582;-70
2022/02/20 03:43:20;;;;;;;18.20;7.87;;;;;;;1.26;100.00;98419.31;1686064;84;21090;-70
2022/02/20 03:46:02;;;;;;;16.57;7.83;;;;;;;1.25;100.00;98420.28;1651986;87;21160;-70
2022/02/20 03:48:30;;;;;;;21.70;8.93;;;;;;;1.24;100.00;98410.61;1641484;87;21106;-69
2022/02/20 03:50:59;;;;;;;17.27;8.00;;;;;;;1.22;100.00;98417.92;1634198;86;21075;-72
2022/02/20 03:53:27;;;;;;;23.83;8.63;;;;;;;1.21;100.00;98417.59;1645092;87;21047;-69
2022/02/20 03:55:55;;;;;;;19.70;8.53;;;;;;;1.19;100.00;98416.88;1618159;87;21107;-70
2022/02/20 03:58:22;;;;;;;20.17;8.80;;;;;;;1.21;100.00;98424.25;1609919;88;21038;-70
2022/02/20 04:00:51;;;;;;;20.27;8.57;;;;;;;1.20;100.00;98424.72;1609091;88;21019;-70
2022/02/20 04:03:28;;;;;;;20.87;9.87;;;;;;;1.17;100.00;98434.36;1609084;88;21158;-69
2022/02/20 04:05:55;;;;;;;21.00;8.93;;;;;;;1.13;100.00;98432.50;1661077;85;21037;-71
2022/02/20 04:08:24;;;;;;;19.20;9.03;;;;;;;1.13;100.00;98428.50;1674929;85;21138;-70
2022/02/20 04:10:53;;;;;;;22.13;8.80;;;;;;;1.10;100.00;98426.14;1677358;85;21205;-70
2022/02/20 04:13:24;;;;;;;20.63;9.00;;;;;;;1.09;100.00;98431.10;1673384;84;21124;-70
2022/02/20 04:15:53;;;;;;;17.63;7.47;;;;;;;1.09;100.00;98423.63;1671209;85;21026;-71
2022/02/20 04:18:22;;;;;;;19.83;8.30;;;;;;;1.11;100.00;98425.63;1647492;85;21061;-69
2022/02/20 04:20:57;;;;;;;22.20;9.80;;;;;;;1.16;100.00;98430.02;1644705;86;21066;-71
2022/02/20 04:23:30;;;;;;;18.33;8.17;;;;;;;1.20;100.00;98422.56;1644704;86;21643;-70
2022/02/20 04:26:00;;;;;;;18.83;9.10;;;;;;;1.21;100.00;98430.91;1658751;86;21054;-70
2022/02/20 04:28:25;;;;;;;21.10;9.43;;;;;;;1.21;100.00;98438.89;1650209;86;21093;-69
2022/02/20 04:30:52;;;;;;;23.57;9.37;;;;;;;1.17;100.00;98435.70;1646140;86;21022;-70
2022/02/20 04:33:19;;;;;;;22.43;9.30;;;;;;;1.14;100.00;98443.47;1649330;85;21015;-69
2022/02/20 04:35:47;;;;;;;19.83;8.50;;;;;;;1.12;100.00;98448.12;1649579;86;21110;-71
2022/02/20 04:38:15;;;;;;;19.70;8.17;;;;;;;1.09;100.00;98456.89;1650038;85;21063;-68
2022/02/20 04:40:42;;;;;;;19.87;8.50;;;;;;;1.06;100.00;98461.18;1661174;85;21007;-67
2022/02/20 04:43:11;;;;;;;17.00;8.30;;;;;;;1.05;100.00;98464.84;1728504;82;21512;-70
2022/02/20 04:45:39;;;;;;;20.40;8.67;;;;;;;1.05;100.00;98468.34;1703690;83;21105;-70
2022/02/20 04:48:09;;;;;;;19.47;7.97;;;;;;;1.04;100.00;98475.96;1735769;82;21872;-68
2022/02/20 04:50:38;;;;;;;18.77;8.83;;;;;;;1.05;100.00;98482.15;1730397;82;21207;-71
2022/02/20 04:53:06;;;;;;;21.60;8.67;;;;;;;1.05;100.00;98490.13;1724812;82;21094;-70
2022/02/20 04:55:35;;;;;;;19.97;8.13;;;;;;;1.03;100.00;98488.95;1731382;82;21022;-70
2022/02/20 04:58:04;;;;;;;20.13;7.70;;;;;;;1.00;100.00;98490.56;1682045;83;21065;-69
2022/02/20 05:00:32;;;;;;;21.93;8.40;;;;;;;0.97;100.00;98501.50;1672307;85;21561;-69
2022/02/20 05:03:03;;;;;;;20.23;7.77;;;;;;;0.97;100.00;98504.16;1685491;84;21236;-70
2022/02/20 05:05:49;;;;;;;15.33;6.70;;;;;;;0.93;100.00;98514.27;1638134;86;21219;-70
2022/02/20 05:08:18;;;;;;;21.83;8.00;;;;;;;0.90;100.00;98518.58;1660315;85;21072;-69
2022/02/20 05:10:46;;;;;;;16.13;7.23;;;;;;;0.89;100.00;98518.72;1647187;87;21078;-69
2022/02/20 05:13:13;;;;;;;14.73;7.00;;;;;;;0.90;100.00;98524.37;1633397;86;21019;-70
2022/02/20 05:15:42;;;;;;;17.47;7.17;;;;;;;0.90;100.00;98527.89;1705774;83;21054;-69
2022/02/20 05:18:11;;;;;;;17.50;6.40;;;;;;;0.93;100.00;98526.74;1708300;84;21634;-70
2022/02/20 05:20:42;;;;;;;16.47;6.20;;;;;;;0.96;100.00;98530.45;1669374;85;21049;-68
2022/02/20 05:23:10;;;;;;;16.33;7.30;;;;;;;0.99;100.00;98538.63;1631786;86;21078;-71
2022/02/20 05:25:39;;;;;;;16.90;6.23;;;;;;;1.01;100.00;98533.52;1615168;87;21054;-70
2022/02/20 05:28:07;;;;;;;16.90;6.40;;;;;;;1.05;100.00;98541.54;1654154;86;21058;-70
2022/02/20 05:30:36;;;;;;;16.13;6.63;;;;;;;1.11;100.00;98540.11;1634420;86;21602;-70
2022/02/20 05:33:05;;;;;;;14.17;6.17;;;;;;;1.18;100.00;98535.86;1611255;87;21132;-71
2022/02/20 05:35:35;;;;;;;14.43;6.30;;;;;;;1.25;100.00;98536.95;1628520;87;21118;-71
2022/02/20 05:38:03;;;;;;;12.53;5.97;;;;;;;1.30;100.00;98539.17;1607998;88;21073;-72
2022/02/20 05:40:31;;;;;;;13.00;5.60;;;;;;;1.34;100.00;98549.87;1608005;88;21037;-71
2022/02/20 05:43:00;;;;;;;12.97;5.70;;;;;;;1.38;100.00;98562.39;1597035;89;21103;-71
2022/02/20 05:45:29;;;;;;;14.10;6.07;;;;;;;1.40;100.00;98571.06;1588417;89;21117;-70
2022/02/20 05:47:57;;;;;;;13.50;5.60;;;;;;;1.44;100.00;98583.95;1565483;89;21072;-70
2022/02/20 05:50:57;;;;;;;11.00;5.33;;;;;;;1.48;100.00;98583.16;1588467;89;21077;-69
2022/02/20 05:53:25;;;;;;;11.37;5.30;;;;;;;1.54;100.00;98588.38;1591505;89;21157;-70
2022/02/20 05:55:53;;;;;;;10.23;5.30;;;;;;;1.61;100.00;98606.78;1585723;89;21073;-70
2022/02/20 05:58:21;;;;;;;9.80;4.90;;;;;;;1.69;100.00;98606.87;1580416;89;21077;-70
2022/02/20 06:00:50;;;;;;;14.17;5.57;;;;;;;1.75;100.00;98616.09;1603315;88;21074;-70
2022/02/20 06:03:18;;;;;;;10.20;5.00;;;;;;;1.83;100.00;98623.69;1621955;88;21081;-71
2022/02/20 06:05:47;;;;;;;13.87;5.40;;;;;;;1.90;100.00;98633.27;1628221;87;21026;-70
2022/02/20 06:08:21;;;;;;;12.57;5.73;;;;;;;1.97;100.00;98633.01;1613488;88;21106;-71
2022/02/20 06:10:55;;;;;;;10.97;5.30;;;;;;;2.03;100.00;98638.23;1691438;82;21086;-70
2022/02/20 06:13:34;;;;;;;13.50;5.43;;;;;;;2.12;100.00;98641.81;1699032;82;21081;-70
2022/02/20 06:16:04;;;;;;;10.80;4.73;;;;;;;2.21;100.00;98647.56;1691915;83;21064;-69
2022/02/20 06:18:50;;;;;;;11.23;4.87;;;;;;;2.30;100.00;98661.83;1676797;83;21125;-70
2022/02/20 06:21:38;;;;;;;13.27;5.43;;;;;;;2.39;100.00;98671.10;1706381;83;21081;-71
2022/02/20 06:24:19;;;;;;;13.57;5.20;;;;;;;2.50;100.00;98683.37;1703806;83;21092;-70
2022/02/20 06:27:06;;;;;;;11.80;5.70;;;;;;;2.59;100.00;98689.12;1670936;84;21513;-70
2022/02/20 06:29:34;;;;;;;11.23;5.57;;;;;;;2.65;100.00;98703.17;1635680;86;21091;-70
2022/02/20 06:32:02;;;;;;;12.57;5.30;;;;;;;2.74;100.00;98703.25;1671660;84;21510;-71
2022/02/20 06:34:33;;;;;;;10.10;4.80;;;;;;;2.87;100.00;98705.52;1676591;84;21022;-70
2022/02/20 06:37:03;;;;;;;11.90;4.90;;;;;;;2.95;100.00;98703.75;1648391;85;21563;-70
2022/02/20 06:39:33;;;;;;;11.50;4.97;;;;;;;3.03;100.00;98709.17;1686930;84;21120;-70
2022/02/20 06:42:01;;;;;;;11.97;5.30;;;;;;;3.10;100.00;98716.55;1687365;84;21053;-71
2022/02/20 06:44:28;;;;;;;9.03;4.30;;;;;;;3.18;100.00;98720.63;1683376;84;21073;-70
2022/02/20 06:46:55;;;;;;;13.73;5.07;;;;;;;3.27;100.00;98714.34;1689213;84;21467;-69
2022/02/20 06:49:25;;;;;;;13.00;5.33;;;;;;;3.35;100.00;98726.42;1632623;88;21133;-70
2022/02/20 06:51:55;;;;;;;12.33;4.93;;;;;;;3.44;100.00;98734.50;1612359;88;21091;-71
2022/02/20 06:54:36;;;;;;;11.20;4.80;;;;;;;3.51;100.00;98728.87;1554620;91;21599;-70
2022/02/20 06:57:08;;;;;;;14.37;5.07;;;;;;;3.61;100.00;98727.75;1493565;92;21618;-70
2022/02/20 06:59:35;;;;;;;11.03;5.03;;;;;;;3.72;100.00;98726.64;1512373;92;21172;-70
2022/02/20 07:02:03;;;;;;;10.87;4.47;;;;;;;3.82;100.00;98721.66;1540908;92;21062;-70
2022/02/20 07:04:30;;;;;;;11.73;4.80;;;;;;;3.85;100.00;98722.18;1526027;93;21181;-70
2022/02/20 07:06:58;;;;;;;9.53;4.20;;;;;;;3.96;100.00;98721.88;1539632;92;21086;-69
2022/02/20 07:09:25;;;;;;;11.17;4.50;;;;;;;4.07;100.00;98714.57;1539021;92;21075;-70
2022/02/20 07:11:52;;;;;;;8.10;4.30;;;;;;;4.16;100.00;98717.61;1506060;93;21058;-70
2022/02/20 07:14:19;;;;;;;11.93;4.43;;;;;;;4.32;100.00;98718.16;1532336;93;21127;-71
2022/02/20 07:16:48;;;;;;;9.10;4.17;;;;;;;4.46;100.00;98718.88;1517614;93;21245;-69
2022/02/20 07:19:16;;;;;;;9.33;4.30;;;;;;;4.58;100.00;98731.95;1504041;94;21605;-71
2022/02/20 07:21:43;;;;;;;11.77;4.60;;;;;;;4.71;100.00;98755.91;1542531;92;21170;-71
2022/02/20 07:24:11;;;;;;;10.53;4.40;;;;;;;4.82;100.00;98779.36;1539510;92;21188;-70
2022/02/20 07:26:38;;;;;;;9.10;4.40;;;;;;;5.02;100.00;98801.31;1541839;93;21106;-70
2022/02/20 07:29:05;;;;;;;8.80;4.37;;;;;;;5.12;100.00;98877.02;1543531;91;21082;-70
2022/02/20 07:31:32;;;;;;;10.77;4.13;;;;;;;5.13;100.00;98970.66;1533675;91;21105;-70
2022/02/20 07:34:00;;;;;;;9.07;4.20;;;;;;;5.15;100.00;99089.72;1630448;87;21486;-70
2022/02/20 07:36:27;;;;;;;10.57;4.30;;;;;;;5.17;100.00;99193.60;1604587;89;21121;-70
2022/02/20 07:39:04;;;;;;;10.77;4.67;;;;;;;5.22;100.00;99288.27;1604528;89;21029;-70
2022/02/20 07:41:32;;;;;;;10.27;4.27;;;;;;;5.28;100.00;99342.61;1576714;89;21112;-70
2022/02/20 07:44:00;;;;;;;9.60;4.53;;;;;;;5.39;100.00;99397.83;1610028;87;21104;-70
2022/02/20 07:46:27;;;;;;;13.03;4.73;;;;;;;5.54;100.00;99426.28;1614144;87;21541;-70
2022/02/20 07:48:57;;;;;;;9.13;4.23;;;;;;;5.63;100.00;99474.97;1634149;86;21033;-70
2022/02/20 07:51:26;;;;;;;10.03;4.57;;;;;;;5.60;100.00;99530.27;1610449;89;21009;-70
2022/02/20 07:53:54;;;;;;;14.27;5.47;;;;;;;5.60;100.00;99563.30;1693760;81;21093;-70
2022/02/20 07:56:21;;;;;;;9.70;4.13;;;;;;;5.75;100.00;99578.37;1745647;81;21103;-70
2022/02/20 07:58:50;;;;;;;10.13;4.07;;;;;;;5.94;100.00;99596.18;1726755;81;21085;-70
2022/02/20 08:01:17;;;;;;;12.47;4.90;;;;;;;6.01;100.00;99611.22;1736199;81;21055;-71
2022/02/20 08:03:44;;;;;;;10.57;4.10;;;;;;;6.08;100.00;99627.89;1731876;82;21079;-70
2022/02/20 08:06:11;;;;;;;7.60;4.10;;;;;;;6.19;100.00;99639.41;1726276;82;21581;-70
2022/02/20 08:08:38;;;;;;;10.30;4.10;;;;;;;6.31;100.00;99652.13;1732467;82;21006;-70
2022/02/20 08:11:05;;;;;;;12.23;4.50;;;;;;;6.35;100.00;99659.70;1704101;82;21034;-71
2022/02/20 08:13:34;;;;;;;11.33;4.73;;;;;;;6.37;100.00;99669.78;1738480;81;21526;-70
2022/02/20 08:16:01;;;;;;;12.23;4.80;;;;;;;6.45;100.00;99687.33;1731818;81;21063;-70
2022/02/20 08:18:28;;;;;;;10.40;4.93;;;;;;;6.53;100.00;99693.77;1727374;82;21005;-70
2022/02/20 08:20:56;;;;;;;12.43;4.60;;;;;;;6.62;100.00;99698.22;1726051;82;21037;-70
2022/02/20 08:23:23;;;;;;;11.43;4.83;;;;;;;6.67;100.00;99712.55;1721376;82;21053;-70
2022/02/20 08:25:50;;;;;;;10.47;4.80;;;;;;;6.76;100.00;99709.77;1739019;82;21117;-69
2022/02/20 08:28:18;;;;;;;9.83;5.30;;;;;;;6.96;100.00;99711.80;1716902;82;21562;-71
2022/02/20 08:30:47;;;;;;;11.97;5.00;;;;;;;7.10;100.00;99718.47;1714666;82;21119;-71
2022/02/20 08:33:14;;;;;;;10.23;4.83;;;;;;;7.11;100.00;99727.36;1724538;82;21522;-70
2022/02/20 08:35:41;;;;;;;8.57;4.20;;;;;;;7.08;100.00;99747.83;1720334;82;21037;-70
2022/02/20 08:38:09;;;;;;;9.73;4.50;;;;;;;7.22;100.00;99746.80;1729207;82;21589;-71
2022/02/20 08:40:39;;;;;;;9.37;4.37;;;;;;;7.38;100.00;99755.95;1734401;82;21049;-69
2022/02/20 08:43:05;;;;;;;11.67;4.37;;;;;;;7.45;100.00;99757.52;1726785;82;21054;-67
2022/02/20 08:45:33;;;;;;;9.03;4.10;;;;;;;7.45;100.00;99758.36;1740449;82;21559;-70
2022/02/20 08:48:01;;;;;;;10.03;4.50;;;;;;;7.59;100.00;99760.47;1719695;82;21047;-70
2022/02/20 08:50:29;;;;;;;11.33;4.07;;;;;;;7.77;100.00;99759.09;1721917;82;21590;-69
2022/02/20 08:52:57;;;;;;;10.50;4.27;;;;;;;7.84;100.00;99773.23;1736327;82;21514;-69
2022/02/20 08:55:24;;;;;;;8.20;4.23;;;;;;;7.75;100.00;99776.38;1738644;82;21030;-69
2022/02/20 08:57:51;;;;;;;8.33;4.07;;;;;;;7.72;100.00;99781.59;1722235;82;21018;-70
2022/02/20 09:00:19;;;;;;;12.37;4.50;;;;;;;7.73;100.00;99783.77;1730106;82;21015;-70
2022/02/20 09:02:47;;;;;;;9.03;4.20;;;;;;;7.75;100.00;99781.25;1728148;82;21027;-70
2022/02/20 09:05:14;;;;;;;9.20;3.90;;;;;;;7.73;100.00;99779.73;1718369;82;21097;-70
2022/02/20 09:07:42;;;;;;;5.37;3.60;;;;;;;7.76;100.00;99776.73;1748471;82;20991;-70
2022/02/20 09:10:10;;;;;;;9.30;4.07;;;;;;;7.76;100.00;99791.54;1745823;82;21503;-70
2022/02/20 09:12:39;;;;;;;12.10;5.13;;;;;;;7.85;100.00;99785.70;1736883;82;21037;-70
2022/02/20 09:15:08;;;;;;;11.83;5.70;;;;;;;7.78;100.00;99794.40;1739981;82;21510;-70
2022/02/20 09:17:37;;;;;;;9.93;4.77;;;;;;;7.71;100.00;99793.34;1719481;82;21075;-70
2022/02/20 09:20:06;;;;;;;11.60;5.00;;;;;;;7.73;100.00;99801.27;1735963;82;21515;-70
2022/02/20 09:22:36;;;;;;;8.47;3.53;;;;;;;7.69;100.00;99791.83;1744535;82;21014;-71
2022/02/20 09:25:05;;;;;;;8.10;3.27;;;;;;;7.78;100.00;99785.48;1711382;82;21112;-71
2022/02/20 09:27:34;;;;;;;7.23;3.40;;;;;;;7.82;100.00;99776.08;1722478;82;21479;-70
2022/02/20 09:30:02;;;;;;;7.47;3.40;;;;;;;7.73;100.00;99773.01;1742840;81;21015;-71
2022/02/20 09:32:30;;;;;;;7.70;3.47;;;;;;;7.76;100.00;99786.16;1725467;82;21088;-70
2022/02/20 09:34:58;;;;;;;7.03;3.47;;;;;;;7.87;100.00;99785.88;1738324;82;21019;-70
2022/02/20 09:37:25;;;;;;;7.57;3.57;;;;;;;8.09;100.00;99784.97;1741978;82;21015;-71
2022/02/20 09:39:52;;;;;;;6.27;3.10;;;;;;;8.34;100.00;99774.65;1741960;82;21558;-71
2022/02/20 09:42:19;;;;;;;6.63;3.30;;;;;;;8.42;100.00;99796.75;1744416;82;21018;-71
2022/02/20 09:44:46;;;;;;;5.07;3.20;;;;;;;8.39;100.00;99794.86;1735061;82;21026;-70
2022/02/20 09:47:14;;;;;;;5.57;3.10;;;;;;;8.33;100.00;99794.50;1734978;82;21023;-70
2022/02/20 09:49:47;;;;;;;7.90;3.63;;;;;;;8.32;100.00;99787.44;1746700;80;21031;-71
2022/02/20 09:52:14;;;;;;;7.20;3.60;;;;;;;8.23;100.00;99789.73;1673664;82;21015;-71
2022/02/20 09:54:42;;;;;;;5.17;2.87;;;;;;;8.20;100.00;99790.56;1748094;82;21531;-70
2022/02/20 09:57:10;;;;;;;6.20;3.20;;;;;;;8.28;100.00;99783.36;1752995;80;21544;-70
2022/02/20 09:59:39;;;;;;;7.07;3.40;;;;;;;8.30;100.00;99780.52;1752439;81;21024;-71
2022/02/20 10:02:15;;;;;;;6.87;3.50;;;;;;;8.48;100.00;99772.34;1761323;80;21081;-69
2022/02/20 10:04:48;;;;;;;10.90;3.87;;;;;;;8.52;100.00;99781.81;1743863;81;21639;-70
2022/02/20 10:07:35;;;;;;;7.30;3.33;;;;;;;8.43;100.00;99772.86;1655284;86;21023;-72
2022/02/20 10:10:17;;;;;;;6.50;3.37;;;;;;;8.48;100.00;99779.08;1610234;87;21090;-70
2022/02/20 10:12:45;;;;;;;8.30;3.27;;;;;;;8.48;100.00;99775.91;1614113;88;21177;-70
2022/02/20 10:18:17;;;;;;;5.77;3.03;;;;;;;8.49;100.00;99770.01;1552635;91;21090;-70
2022/02/20 10:21:04;;;;;;;7.87;3.50;;;;;;;8.60;100.00;99763.46;1531612;92;21106;-70
2022/02/20 10:23:52;;;;;;;4.23;2.73;;;;;;;8.58;100.00;99766.83;1540343;92;21094;-69
2022/02/20 10:26:45;;;;;;;5.17;3.23;;;;;;;8.60;100.00;99768.34;1540145;92;21106;-68
2022/02/20 10:29:32;;;;;;;6.23;3.23;;;;;;;8.48;100.00;99769.66;1539748;92;21121;-69
2022/02/20 10:32:00;;;;;;;7.67;3.60;;;;;;;8.50;100.00;99766.31;1551109;92;21145;-71
2022/02/20 10:34:29;;;;;;;6.03;3.07;;;;;;;8.47;100.00;99773.37;1535733;92;21146;-69
2022/02/20 10:36:58;;;;;;;6.93;2.80;;;;;;;8.58;100.00;99769.02;1541021;92;21077;-70
2022/02/20 10:42:01;;;;;;;5.13;2.90;;;;;;;9.05;100.00;99753.58;1541257;92;21680;-67
2022/02/20 10:44:30;;;;;;;5.33;2.97;;;;;;;9.15;100.00;99768.75;1537629;92;21641;-69
2022/02/20 10:47:10;;;;;;;5.70;3.37;;;;;;;9.06;100.00;99777.34;1524073;93;21085;-68
2022/02/20 10:49:37;;;;;;;4.77;2.90;;;;;;;9.08;100.00;99762.70;1519235;93;21088;-69
2022/02/20 10:52:24;;;;;;;6.87;2.90;;;;;;;9.11;100.00;99774.47;1528110;93;21219;-69
2022/02/20 10:55:10;;;;;;;4.53;3.03;;;;;;;9.13;100.00;99776.48;1537216;91;21169;-69
2022/02/20 10:57:41;;;;;;;5.12;2.75;;;;;;;9.29;100.00;99766.20;1552948;91;21048;-69
2022/02/20 11:00:15;;;;;;;6.58;3.20;;;;;;;9.39;100.00;99773.30;1554847;91;21592;-67
2022/02/20 11:02:43;;;;;;;6.87;3.23;;;;;;;9.18;100.00;99783.26;1527300;92;21126;-69
2022/02/20 11:05:13;;;;;;;6.75;3.20;;;;;;;8.99;100.00;99779.86;1561365;91;21608;-68
2022/02/20 11:07:41;;;;;;;5.57;2.80;;;;;;;9.01;100.00;99772.95;1561254;91;21088;-67
2022/02/20 11:10:10;;;;;;;6.37;3.10;;;;;;;9.04;100.00;99784.25;1562477;91;21030;-70
2022/02/20 11:12:38;;;;;;;6.47;3.10;;;;;;;8.84;100.00;99786.42;1561207;89;21088;-70
2022/02/20 11:15:07;;;;;;;5.33;3.10;;;;;;;8.87;100.00;99767.70;1562443;91;21068;-70
2022/02/20 11:17:36;;;;;;;5.45;3.10;;;;;;;8.86;100.00;99771.44;1546647;92;21222;-70
2022/02/20 11:20:05;;;;;;;4.60;2.97;;;;;;;8.87;100.00;99773.97;1542918;92;21077;-70
2022/02/20 11:22:40;;;;;;;5.97;3.23;;;;;;;8.95;100.00;99777.17;1638544;87;21113;-70
2022/02/20 11:25:08;;;;;;;4.63;2.80;;;;;;;8.84;100.00;99772.11;1581509;89;21055;-70
2022/02/20 11:27:35;;;;;;;7.30;3.10;;;;;;;8.84;100.00;99780.20;1587885;89;21082;-70
2022/02/20 11:30:04;;;;;;;5.90;3.33;;;;;;;8.98;100.00;99779.54;1605010;89;21115;-69
2022/02/20 11:32:32;;;;;;;6.10;2.83;;;;;;;9.01;100.00;99790.00;1601261;89;21051;-71
2022/02/20 11:34:59;;;;;;;5.50;2.90;;;;;;;8.90;100.00;99791.65;1604861;89;21035;-69
2022/02/20 11:37:50;;;;;;;5.07;2.93;;;;;;;8.97;100.00;99795.37;1603653;89;21259;-70
2022/02/20 11:40:20;;;;;;;3.95;2.75;;;;;;;9.01;100.00;99795.39;1653513;86;21089;-70
2022/02/20 11:43:07;;;;;;;6.17;2.93;;;;;;;9.19;100.00;99795.72;1654301;86;21328;-71
2022/02/20 11:45:35;;;;;;;6.35;2.87;;;;;;;9.17;100.00;99800.44;1624978;87;21089;-71
2022/02/20 11:48:12;;;;;;;4.85;2.75;;;;;;;9.03;100.00;99821.69;1629947;87;21043;-74